CSN5255 ZSAM-ZJSY
Flight info
| Callsign | CSN5255 |
|---|---|
| Flight time | N/A |
| Altitude | 34100 |
| Route | NUSPA9Z NUSPA W597 IKATA A470 BEBEM R200 BIGRO G221 UPRIS UPRIS3D |
| Aircraft | A320/M-SDE3FGHIRWY/LB1 |
Departure
| Time | N/A |
|---|---|
| Airport | Xiamen Gaoqi International Airport (ZSAM) |
Arrival
| Time | 2026-04-30 18:42 |
|---|---|
| Airport | Sanya Phoenix International Airport (ZJSY) |
| Time | Latitude | Longitude | Altitude | Speed | Heading |
|---|---|---|---|---|---|
| 2026-04-30 17:39 | 22.70239 | 114.04007 | 34152 ft | 442 kts | 246° |
| 2026-04-30 17:41 | 22.54158 | 113.83817 | 34162 ft | 444 kts | 230° |
| 2026-04-30 17:42 | 22.49955 | 113.78911 | 34160 ft | 444 kts | 229° |
| 2026-04-30 17:43 | 22.39494 | 113.66745 | 34139 ft | 442 kts | 230° |
| 2026-04-30 17:44 | 22.27033 | 113.52319 | 34145 ft | 440 kts | 230° |
| 2026-04-30 17:46 | 22.19182 | 113.38562 | 34143 ft | 432 kts | 250° |
| 2026-04-30 17:47 | 22.14733 | 113.26580 | 34136 ft | 431 kts | 249° |
| 2026-04-30 17:48 | 22.06243 | 113.05931 | 34137 ft | 431 kts | 247° |
| 2026-04-30 17:50 | 21.96859 | 112.82209 | 34137 ft | 430 kts | 248° |
| 2026-04-30 17:52 | 21.89719 | 112.64541 | 34133 ft | 430 kts | 248° |
| 2026-04-30 17:54 | 21.79482 | 112.38921 | 34126 ft | 431 kts | 248° |
| 2026-04-30 17:56 | 21.70036 | 112.15215 | 34123 ft | 432 kts | 248° |
| 2026-04-30 17:58 | 21.62910 | 111.97384 | 34125 ft | 433 kts | 248° |
| 2026-04-30 18:00 | 21.50945 | 111.75048 | 34126 ft | 437 kts | 231° |
| 2026-04-30 18:01 | 21.41106 | 111.62660 | 34128 ft | 437 kts | 231° |
| 2026-04-30 18:02 | 21.29260 | 111.47793 | 34127 ft | 436 kts | 231° |
| 2026-04-30 18:04 | 21.17440 | 111.33028 | 34127 ft | 436 kts | 231° |
| 2026-04-30 18:06 | 21.01649 | 111.13311 | 34120 ft | 436 kts | 231° |
| 2026-04-30 18:08 | 20.87831 | 110.96073 | 34115 ft | 436 kts | 231° |
| 2026-04-30 18:10 | 20.72068 | 110.76358 | 34118 ft | 436 kts | 231° |
| 2026-04-30 18:11 | 20.58266 | 110.59164 | 34113 ft | 437 kts | 231° |
| 2026-04-30 18:13 | 20.47769 | 110.47478 | 34113 ft | 441 kts | 217° |
| 2026-04-30 18:14 | 20.35130 | 110.38239 | 34107 ft | 442 kts | 217° |
| 2026-04-30 18:15 | 20.20011 | 110.27176 | 34119 ft | 443 kts | 217° |
| 2026-04-30 18:16 | 20.09869 | 110.19776 | 34119 ft | 444 kts | 217° |
| 2026-04-30 18:17 | 20.04778 | 110.16060 | 34121 ft | 444 kts | 217° |
| 2026-04-30 18:18 | 19.96635 | 110.11299 | 34115 ft | 448 kts | 207° |
| 2026-04-30 18:18 | 19.90962 | 110.08566 | 34115 ft | 448 kts | 207° |
| 2026-04-30 18:19 | 19.85321 | 110.05854 | 34108 ft | 448 kts | 207° |
| 2026-04-30 18:19 | 19.79646 | 110.03116 | 34113 ft | 448 kts | 207° |
| 2026-04-30 18:20 | 19.73972 | 110.00376 | 34105 ft | 448 kts | 207° |
| 2026-04-30 18:20 | 19.68296 | 109.97643 | 34104 ft | 448 kts | 207° |
| 2026-04-30 18:21 | 19.62637 | 109.94920 | 33896 ft | 441 kts | 207° |
| 2026-04-30 18:21 | 19.59868 | 109.93589 | 33430 ft | 435 kts | 207° |
| 2026-04-30 18:21 | 19.57090 | 109.92255 | 32543 ft | 441 kts | 207° |
| 2026-04-30 18:21 | 19.54295 | 109.90913 | 31957 ft | 439 kts | 207° |
| 2026-04-30 18:22 | 19.51506 | 109.89575 | 31188 ft | 441 kts | 207° |
| 2026-04-30 18:22 | 19.45902 | 109.86881 | 29642 ft | 444 kts | 207° |
| 2026-04-30 18:22 | 19.43129 | 109.85547 | 28930 ft | 442 kts | 207° |
| 2026-04-30 18:23 | 19.40334 | 109.84205 | 27988 ft | 444 kts | 207° |
| 2026-04-30 18:23 | 19.37515 | 109.82851 | 27147 ft | 444 kts | 207° |
| 2026-04-30 18:23 | 19.34701 | 109.81508 | 26418 ft | 442 kts | 207° |
| 2026-04-30 18:23 | 19.31903 | 109.80180 | 25732 ft | 439 kts | 207° |
| 2026-04-30 18:24 | 19.26292 | 109.77529 | 23979 ft | 443 kts | 207° |
| 2026-04-30 18:24 | 19.23456 | 109.76188 | 22902 ft | 449 kts | 207° |
| 2026-04-30 18:24 | 19.20613 | 109.74828 | 22029 ft | 447 kts | 207° |
| 2026-04-30 18:25 | 19.17818 | 109.73478 | 21003 ft | 449 kts | 207° |
| 2026-04-30 18:25 | 19.12128 | 109.70719 | 19665 ft | 446 kts | 207° |
| 2026-04-30 18:25 | 19.09321 | 109.69362 | 19034 ft | 441 kts | 207° |
| 2026-04-30 18:26 | 19.03785 | 109.66692 | 17759 ft | 433 kts | 207° |
| 2026-04-30 18:26 | 19.01158 | 109.65430 | 17179 ft | 430 kts | 206° |
| 2026-04-30 18:26 | 18.98346 | 109.64083 | 16543 ft | 426 kts | 206° |
| 2026-04-30 18:27 | 18.92999 | 109.61513 | 15264 ft | 418 kts | 206° |
| 2026-04-30 18:27 | 18.90403 | 109.60264 | 14635 ft | 414 kts | 206° |
| 2026-04-30 18:28 | 18.85197 | 109.57765 | 13264 ft | 408 kts | 206° |
| 2026-04-30 18:28 | 18.82626 | 109.56529 | 12598 ft | 403 kts | 205° |
| 2026-04-30 18:28 | 18.77558 | 109.54089 | 11271 ft | 397 kts | 205° |
| 2026-04-30 18:29 | 18.75069 | 109.52895 | 10871 ft | 385 kts | 205° |
| 2026-04-30 18:29 | 18.68800 | 109.49476 | 10439 ft | 307 kts | 223° |
| 2026-04-30 18:30 | 18.65801 | 109.46370 | 10001 ft | 296 kts | 225° |
| 2026-04-30 18:30 | 18.62938 | 109.43358 | 9758 ft | 288 kts | 225° |
| 2026-04-30 18:31 | 18.61521 | 109.41866 | 9630 ft | 290 kts | 225° |
| 2026-04-30 18:31 | 18.58658 | 109.38853 | 9374 ft | 288 kts | 225° |
| 2026-04-30 18:32 | 18.55859 | 109.35905 | 8846 ft | 285 kts | 225° |
| 2026-04-30 18:32 | 18.54474 | 109.34446 | 8700 ft | 278 kts | 225° |
| 2026-04-30 18:32 | 18.51767 | 109.31605 | 8177 ft | 273 kts | 225° |
| 2026-04-30 18:33 | 18.50424 | 109.30197 | 7900 ft | 271 kts | 225° |
| 2026-04-30 18:33 | 18.47762 | 109.27403 | 7277 ft | 270 kts | 225° |
| 2026-04-30 18:33 | 18.46403 | 109.25977 | 6596 ft | 279 kts | 225° |
| 2026-04-30 18:34 | 18.45029 | 109.24535 | 6074 ft | 275 kts | 225° |
| 2026-04-30 18:34 | 18.42444 | 109.21828 | 5444 ft | 254 kts | 225° |
| 2026-04-30 18:34 | 18.41217 | 109.20539 | 5128 ft | 244 kts | 225° |
| 2026-04-30 18:35 | 18.40031 | 109.19294 | 4786 ft | 238 kts | 225° |
| 2026-04-30 18:35 | 18.38869 | 109.18075 | 4492 ft | 234 kts | 225° |
| 2026-04-30 18:35 | 18.37575 | 109.17057 | 4184 ft | 233 kts | 206° |
| 2026-04-30 18:36 | 18.34435 | 109.16677 | 3694 ft | 228 kts | 172° |
| 2026-04-30 18:36 | 18.32880 | 109.16905 | 3500 ft | 223 kts | 172° |
| 2026-04-30 18:36 | 18.29990 | 109.17637 | 3165 ft | 211 kts | 150° |
| 2026-04-30 18:37 | 18.28868 | 109.18582 | 3041 ft | 203 kts | 131° |
| 2026-04-30 18:37 | 18.28127 | 109.19800 | 2983 ft | 195 kts | 113° |
| 2026-04-30 18:37 | 18.27785 | 109.21168 | 2972 ft | 193 kts | 96° |
| 2026-04-30 18:37 | 18.27844 | 109.22575 | 2972 ft | 193 kts | 82° |
| 2026-04-30 18:38 | 18.28026 | 109.23954 | 2884 ft | 185 kts | 82° |
| 2026-04-30 18:38 | 18.28199 | 109.25270 | 2701 ft | 178 kts | 82° |
| 2026-04-30 18:38 | 18.28366 | 109.26536 | 2483 ft | 170 kts | 82° |
| 2026-04-30 18:38 | 18.28523 | 109.27731 | 2288 ft | 159 kts | 82° |
| 2026-04-30 18:39 | 18.28669 | 109.28845 | 2094 ft | 149 kts | 82° |
| 2026-04-30 18:39 | 18.28808 | 109.29902 | 1895 ft | 143 kts | 83° |
| 2026-04-30 18:39 | 18.28942 | 109.30922 | 1718 ft | 141 kts | 82° |
| 2026-04-30 18:39 | 18.29076 | 109.31945 | 1528 ft | 140 kts | 82° |
| 2026-04-30 18:40 | 18.29208 | 109.32959 | 1322 ft | 140 kts | 83° |
| 2026-04-30 18:40 | 18.29332 | 109.33966 | 1100 ft | 138 kts | 82° |
| 2026-04-30 18:40 | 18.29470 | 109.34966 | 922 ft | 138 kts | 83° |
| 2026-04-30 18:40 | 18.29594 | 109.35963 | 794 ft | 137 kts | 81° |
| 2026-04-30 18:41 | 18.29736 | 109.36961 | 620 ft | 137 kts | 82° |
| 2026-04-30 18:41 | 18.29857 | 109.37954 | 431 ft | 138 kts | 82° |
| 2026-04-30 18:41 | 18.29999 | 109.38953 | 248 ft | 138 kts | 81° |
| 2026-04-30 18:41 | 18.30126 | 109.39950 | 92 ft | 133 kts | 82° |
| 2026-04-30 18:42 | 18.30236 | 109.40794 | 79 ft | 94 kts | 82° |
| 2026-04-30 18:42 | 18.30321 | 109.41457 | 88 ft | 14 kts | 82° |
| 2026-04-30 18:42 | 18.30335 | 109.41561 | 90 ft | 15 kts | 82° |
| 2026-04-30 18:45 | 18.30456 | 109.41155 | 86 ft | 26 kts | 262° |
| 2026-04-30 18:45 | 18.30436 | 109.41004 | 83 ft | 18 kts | 262° |
| 2026-04-30 18:45 | 18.30420 | 109.40884 | 82 ft | 11 kts | 262° |
| 2026-04-30 18:46 | 18.30447 | 109.40828 | 83 ft | 10 kts | 338° |
| 2026-04-30 18:46 | 18.30523 | 109.40815 | 83 ft | 12 kts | 352° |
| 2026-04-30 18:46 | 18.30615 | 109.40802 | 85 ft | 14 kts | 352° |
| 2026-04-30 18:46 | 18.30692 | 109.40794 | 84 ft | 9 kts | 5° |
| 2026-04-30 18:47 | 18.30751 | 109.40809 | 86 ft | 4 kts | 1° |
| 2026-04-30 18:47 | 18.30780 | 109.40806 | 85 ft | 5 kts | 354° |
| 2026-04-30 18:47 | 18.30806 | 109.40803 | 82 ft | 1 kts | 352° |
| 2026-04-30 18:47 | 18.30815 | 109.40801 | 82 ft | 2 kts | 351° |
| 2026-04-30 18:48 | 18.30828 | 109.40799 | 87 ft | 0 kts | 351° |